JA4169 RJFK-RJFK

Flight info

Callsign JA4169
Flight time 0h 9m
Altitude 2500
Route TRAFFIC
Aircraft BE36/L-SDGLOV/S

Departure

Time 2026-05-08 13:28
Airport Kagoshima Airport (RJFK)

Arrival

Time 2026-05-08 13:37
Airport Kagoshima Airport (RJFK)
Time Latitude Longitude Altitude Speed Heading
2026-05-08 13:00 31.79410 130.72247 869 ft 0 kts 330°
2026-05-08 13:11 31.79408 130.72259 869 ft 6 kts 167°
2026-05-08 13:11 31.79384 130.72266 869 ft 7 kts 136°
2026-05-08 13:12 31.79396 130.72316 868 ft 7 kts 58°
2026-05-08 13:12 31.79381 130.72360 867 ft 7 kts 150°
2026-05-08 13:12 31.79337 130.72390 866 ft 8 kts 150°
2026-05-08 13:12 31.79292 130.72420 866 ft 7 kts 150°
2026-05-08 13:13 31.79258 130.72443 867 ft 4 kts 150°
2026-05-08 13:13 31.79256 130.72445 867 ft 0 kts 149°
2026-05-08 13:15 31.79255 130.72446 867 ft 2 kts 149°
2026-05-08 13:15 31.79219 130.72471 866 ft 6 kts 149°
2026-05-08 13:15 31.79188 130.72492 864 ft 5 kts 150°
2026-05-08 13:15 31.79157 130.72513 864 ft 4 kts 148°
2026-05-08 13:16 31.79143 130.72524 864 ft 0 kts 142°
2026-05-08 13:16 31.79129 130.72540 863 ft 0 kts 127°
2026-05-08 13:21 31.79118 130.72567 862 ft 9 kts 101°
2026-05-08 13:21 31.79131 130.72627 856 ft 5 kts 60°
2026-05-08 13:21 31.79138 130.72642 858 ft 0 kts 58°
2026-05-08 13:24 31.79140 130.72645 861 ft 3 kts 58°
2026-05-08 13:24 31.79165 130.72694 857 ft 8 kts 58°
2026-05-08 13:24 31.79194 130.72707 855 ft 0 kts 330°
2026-05-08 13:26 31.79199 130.72704 856 ft 8 kts 330°
2026-05-08 13:27 31.79401 130.72568 868 ft 58 kts 330°
2026-05-08 13:27 31.79809 130.72304 981 ft 74 kts 330°
2026-05-08 13:27 31.80300 130.71980 1122 ft 87 kts 330°
2026-05-08 13:27 31.80848 130.71601 1335 ft 94 kts 330°
2026-05-08 13:28 31.81436 130.71293 1510 ft 96 kts 354°
2026-05-08 13:28 31.82037 130.71632 1700 ft 107 kts 47°
2026-05-08 13:28 31.82334 130.72466 1924 ft 107 kts 63°
2026-05-08 13:28 31.82532 130.73306 1937 ft 114 kts 86°
2026-05-08 13:29 31.82132 130.74162 1832 ft 130 kts 143°
2026-05-08 13:29 31.81356 130.74669 1807 ft 123 kts 149°
2026-05-08 13:29 31.80614 130.75148 1778 ft 122 kts 152°
2026-05-08 13:29 31.79844 130.75603 1679 ft 123 kts 153°
2026-05-08 13:30 31.79071 130.76053 1598 ft 123 kts 153°
2026-05-08 13:30 31.78351 130.76518 1595 ft 120 kts 155°
2026-05-08 13:30 31.77778 130.77162 1645 ft 115 kts 104°
2026-05-08 13:30 31.77821 130.78004 1670 ft 99 kts 52°
2026-05-08 13:31 31.78314 130.78393 1694 ft 82 kts 352°
2026-05-08 13:31 31.78737 130.77998 1783 ft 89 kts 292°
2026-05-08 13:31 31.78669 130.77203 1781 ft 109 kts 253°
2026-05-08 13:31 31.78080 130.76549 1832 ft 128 kts 206°
2026-05-08 13:32 31.77175 130.76558 1937 ft 136 kts 156°
2026-05-08 13:32 31.76562 130.77317 1975 ft 128 kts 102°
2026-05-08 13:32 31.76643 130.78284 1983 ft 120 kts 53°
2026-05-08 13:32 31.77282 130.78821 1967 ft 114 kts
2026-05-08 13:33 31.78036 130.78544 1867 ft 117 kts 322°
2026-05-08 13:33 31.78341 130.77689 1782 ft 124 kts 269°
2026-05-08 13:33 31.77858 130.76814 1793 ft 139 kts 215°
2026-05-08 13:33 31.76904 130.76693 1770 ft 140 kts 173°
2026-05-08 13:34 31.76005 130.76898 1731 ft 127 kts 172°
2026-05-08 13:34 31.75269 130.76562 1602 ft 109 kts 252°
2026-05-08 13:34 31.75002 130.75799 1640 ft 96 kts 269°
2026-05-08 13:34 31.75383 130.75283 1517 ft 95 kts 331°
2026-05-08 13:35 31.75941 130.74877 1531 ft 91 kts 327°
2026-05-08 13:35 31.76508 130.74509 1495 ft 95 kts 332°
2026-05-08 13:35 31.77076 130.74137 1369 ft 87 kts 329°
2026-05-08 13:35 31.77555 130.73812 1212 ft 76 kts 332°
2026-05-08 13:36 31.78002 130.73515 1115 ft 74 kts 329°
2026-05-08 13:36 31.78433 130.73223 1064 ft 70 kts 329°
2026-05-08 13:36 31.78869 130.72927 1001 ft 74 kts 329°
2026-05-08 13:36 31.79292 130.72642 875 ft 59 kts 330°
2026-05-08 13:37 31.79564 130.72459 872 ft 42 kts 330°
2026-05-08 13:37 31.79938 130.72207 919 ft 72 kts 330°
2026-05-08 13:37 31.80403 130.71903 1058 ft 84 kts 330°
2026-05-08 13:37 31.80947 130.71540 1256 ft 93 kts 330°
2026-05-08 13:38 31.81495 130.71180 1508 ft 89 kts 332°
2026-05-08 13:38 31.82016 130.70809 1763 ft 85 kts 329°
2026-05-08 13:38 31.82359 130.70237 1936 ft 96 kts 289°
2026-05-08 13:38 31.82261 130.69417 2030 ft 113 kts 253°
2026-05-08 13:39 31.81766 130.68622 2068 ft 123 kts 242°
2026-05-08 13:39 31.81226 130.67915 2213 ft 128 kts 205°
2026-05-08 13:39 31.80348 130.68207 2206 ft 137 kts 152°
2026-05-08 13:39 31.79486 130.68676 2259 ft 137 kts 152°
2026-05-08 13:40 31.78677 130.69246 2356 ft 135 kts 143°
2026-05-08 13:40 31.77769 130.69515 2301 ft 138 kts 197°
2026-05-08 13:40 31.77090 130.68856 2259 ft 126 kts 258°
2026-05-08 13:40 31.77214 130.67958 2318 ft 110 kts 314°
2026-05-08 13:41 31.77878 130.67569 2274 ft 111 kts 353°
2026-05-08 13:41 31.78618 130.67865 2162 ft 121 kts 32°
2026-05-08 13:41 31.79057 130.68772 2021 ft 138 kts 73°
2026-05-08 13:41 31.78965 130.69928 1923 ft 149 kts 108°
2026-05-08 13:42 31.78116 130.70502 1925 ft 147 kts 187°
2026-05-08 13:42 31.77320 130.69883 1829 ft 140 kts 250°
2026-05-08 13:42 31.77321 130.68855 1824 ft 124 kts 302°
2026-05-08 13:42 31.77921 130.68217 1897 ft 113 kts 334°
2026-05-08 13:43 31.78657 130.68085 1988 ft 106 kts
2026-05-08 13:43 31.79267 130.68614 1895 ft 123 kts 54°
2026-05-08 13:43 31.79383 130.69663 1792 ft 142 kts 103°
2026-05-08 13:43 31.78719 130.70480 1809 ft 144 kts 160°
2026-05-08 13:44 31.77786 130.70334 1811 ft 135 kts 221°
2026-05-08 13:44 31.77399 130.69431 1781 ft 121 kts 278°
2026-05-08 13:44 31.77802 130.68674 1776 ft 110 kts 336°
2026-05-08 13:44 31.78524 130.68740 1863 ft 111 kts 27°
2026-05-08 13:45 31.78966 130.69515 1876 ft 124 kts 71°
2026-05-08 13:45 31.78858 130.70512 1847 ft 132 kts 117°
2026-05-08 13:45 31.78072 130.71088 1788 ft 138 kts 177°
2026-05-08 13:45 31.77273 130.70715 1792 ft 124 kts 240°
2026-05-08 13:46 31.77122 130.69796 1688 ft 114 kts 291°
2026-05-08 13:46 31.77581 130.69089 1731 ft 106 kts 330°
2026-05-08 13:46 31.78271 130.68951 1750 ft 108 kts 12°
2026-05-08 13:46 31.78847 130.69484 1813 ft 111 kts 54°
2026-05-08 13:47 31.78946 130.70437 1739 ft 128 kts 101°
2026-05-08 13:47 31.78301 130.71169 1686 ft 135 kts 167°
2026-05-08 13:47 31.77438 130.71035 1703 ft 125 kts 213°
2026-05-08 13:47 31.76862 130.70335 1653 ft 116 kts 251°
2026-05-08 13:48 31.76934 130.69442 1390 ft 117 kts 311°
2026-05-08 13:48 31.77551 130.69061 1735 ft 84 kts
2026-05-08 13:48 31.78094 130.69410 1729 ft 98 kts 33°
2026-05-08 13:48 31.78484 130.70071 1799 ft 106 kts 63°
2026-05-08 13:49 31.78431 130.70939 1859 ft 119 kts 122°
2026-05-08 13:49 31.77663 130.71184 1815 ft 120 kts 206°
2026-05-08 13:49 31.77150 130.70521 1784 ft 108 kts 261°
2026-05-08 13:49 31.77164 130.69655 1679 ft 106 kts 297°
2026-05-08 13:50 31.77439 130.69220 1785 ft 97 kts 324°
2026-05-08 13:50 31.78043 130.69226 1753 ft 107 kts 43°
2026-05-08 13:50 31.77738 130.70372 1685 ft 135 kts 156°
2026-05-08 13:50 31.76930 130.70860 1777 ft 127 kts 141°
2026-05-08 13:51 31.76451 130.71280 1697 ft 134 kts 141°
2026-05-08 13:51 31.76028 130.72168 1702 ft 122 kts 80°
2026-05-08 13:51 31.76244 130.73025 1647 ft 103 kts 59°
2026-05-08 13:51 31.76523 130.73717 1560 ft 88 kts 43°
2026-05-08 13:52 31.76989 130.74048 1444 ft 74 kts 356°
2026-05-08 13:52 31.77472 130.73856 1323 ft 78 kts 333°
2026-05-08 13:52 31.77941 130.73559 1191 ft 75 kts 330°
2026-05-08 13:52 31.78380 130.73258 1112 ft 71 kts 331°
2026-05-08 13:53 31.78817 130.72966 1012 ft 73 kts 330°
2026-05-08 13:53 31.79232 130.72684 890 ft 60 kts 329°
2026-05-08 13:53 31.79505 130.72498 870 ft 37 kts 329°
2026-05-08 13:53 31.79864 130.72259 914 ft 75 kts 333°
2026-05-08 13:54 31.80346 130.71976 1119 ft 83 kts 327°
2026-05-08 13:54 31.80859 130.71620 1331 ft 89 kts 327°
2026-05-08 13:54 31.81399 130.71226 1555 ft 88 kts 330°
2026-05-08 13:54 31.81820 130.70714 1780 ft 94 kts 300°
2026-05-08 13:55 31.81854 130.69891 1923 ft 113 kts 261°
2026-05-08 13:55 31.81430 130.69058 2047 ft 127 kts 228°
2026-05-08 13:55 31.79633 130.68794 1991 ft 148 kts 155°
2026-05-08 13:56 31.78707 130.69293 2030 ft 145 kts 172°
2026-05-08 13:56 31.77790 130.68937 1935 ft 142 kts 230°
2026-05-08 13:56 31.77464 130.67944 1955 ft 125 kts 281°
2026-05-08 13:56 31.77865 130.67124 1963 ft 116 kts 328°
2026-05-08 13:57 31.78640 130.67061 1864 ft 127 kts 24°
2026-05-08 13:57 31.79170 130.67911 1879 ft 138 kts 70°
2026-05-08 13:57 31.78999 130.69016 1999 ft 144 kts 119°
2026-05-08 13:57 31.78158 130.69625 1996 ft 148 kts 173°
2026-05-08 13:58 31.77248 130.69323 2049 ft 136 kts 225°
2026-05-08 13:58 31.76873 130.68383 2006 ft 128 kts 279°
2026-05-08 13:58 31.77231 130.67511 2025 ft 117 kts 321°
2026-05-08 13:58 31.77953 130.67150 2097 ft 113 kts 353°
2026-05-08 13:59 31.78736 130.67363 2103 ft 124 kts 27°
2026-05-08 13:59 31.79212 130.68241 2076 ft 141 kts 74°
2026-05-08 13:59 31.78995 130.69394 2078 ft 153 kts 120°
2026-05-08 13:59 31.78082 130.70041 1984 ft 160 kts 173°
2026-05-08 14:00 31.77052 130.69724 1891 ft 154 kts 222°
2026-05-08 14:00 31.76559 130.68730 1969 ft 131 kts 270°
2026-05-08 14:00 31.76797 130.67808 2004 ft 119 kts 314°
2026-05-08 14:00 31.77507 130.67406 2087 ft 110 kts 357°
2026-05-08 14:01 31.78198 130.67746 2214 ft 113 kts 38°
2026-05-08 14:01 31.78553 130.68595 2286 ft 123 kts 75°
2026-05-08 14:01 31.78389 130.69691 2015 ft 144 kts 115°
2026-05-08 14:01 31.77545 130.70266 2022 ft 147 kts 179°
2026-05-08 14:02 31.76655 130.69825 1997 ft 138 kts 234°
2026-05-08 14:02 31.76368 130.68830 1901 ft 128 kts 287°
2026-05-08 14:02 31.76803 130.68009 2022 ft 114 kts 326°
2026-05-08 14:02 31.77530 130.67737 2072 ft 111 kts 359°
2026-05-08 14:03 31.78243 130.68065 2073 ft 115 kts 33°
2026-05-08 14:03 31.78710 130.68888 2044 ft 129 kts 68°
2026-05-08 14:03 31.78499 130.69948 1889 ft 148 kts 130°
2026-05-08 14:03 31.77570 130.70367 1927 ft 143 kts 188°
2026-05-08 14:04 31.76796 130.69806 1951 ft 132 kts 244°
2026-05-08 14:04 31.76629 130.68816 1925 ft 119 kts 288°
2026-05-08 14:04 31.77051 130.68052 1919 ft 111 kts 328°
2026-05-08 14:04 31.77767 130.68174 1938 ft 122 kts 44°
2026-05-08 14:05 31.77919 130.69185 1913 ft 140 kts 97°
2026-05-08 14:05 31.77381 130.70148 1890 ft 146 kts 143°
2026-05-08 14:05 31.76498 130.70682 2000 ft 136 kts 152°
2026-05-08 14:05 31.75677 130.71236 2052 ft 138 kts 147°
2026-05-08 14:06 31.75135 130.72044 2065 ft 120 kts 87°
2026-05-08 14:06 31.75346 130.72929 1950 ft 114 kts 57°
2026-05-08 14:06 31.75693 130.73728 1872 ft 105 kts 52°
2026-05-08 14:06 31.76176 130.74323 1802 ft 98 kts 22°
2026-05-08 14:07 31.76815 130.74325 1697 ft 98 kts 327°
2026-05-08 14:07 31.77411 130.73899 1479 ft 100 kts 332°
2026-05-08 14:07 31.77988 130.73522 1271 ft 92 kts 330°
2026-05-08 14:07 31.78512 130.73170 1083 ft 81 kts 329°
2026-05-08 14:08 31.78986 130.72849 952 ft 78 kts 329°
2026-05-08 14:08 31.79416 130.72556 871 ft 60 kts 329°
2026-05-08 14:08 31.79715 130.72356 872 ft 42 kts 330°
2026-05-08 14:08 31.79941 130.72204 877 ft 31 kts 330°
2026-05-08 14:09 31.80023 130.72087 881 ft 14 kts 253°
2026-05-08 14:09 31.79979 130.72006 881 ft 11 kts 219°
2026-05-08 14:09 31.79877 130.72025 876 ft 21 kts 149°
2026-05-08 14:09 31.79734 130.72120 872 ft 26 kts 150°
2026-05-08 14:10 31.79560 130.72239 868 ft 29 kts 148°
2026-05-08 14:10 31.79417 130.72332 868 ft 15 kts 179°
2026-05-08 14:10 31.79370 130.72276 869 ft 7 kts 181°
2026-05-08 14:10 31.79343 130.72292 868 ft 0 kts 150°